createdAt,value
2022-11-17T00:03:26.626Z,8.40
2022-11-17T00:08:28.274Z,10.70
2022-11-17T00:13:48.975Z,8.60
2022-11-17T00:19:09.420Z,8.60
2022-11-17T00:24:11.207Z,8.70
2022-11-17T00:29:12.879Z,9.80
2022-11-17T00:34:20.661Z,8.60
2022-11-17T00:39:23.797Z,8.50
2022-11-17T00:44:25.978Z,8.70
2022-11-17T01:04:34.268Z,9.00
2022-11-17T01:09:35.929Z,9.10
2022-11-17T01:14:37.625Z,9.00
2022-11-17T01:19:39.382Z,8.90
2022-11-17T01:29:43.138Z,8.80
2022-11-17T01:34:44.822Z,8.70
2022-11-17T01:45:01.393Z,9.90
2022-11-17T01:50:28.298Z,9.10
2022-11-17T01:55:38.712Z,9.10
2022-11-17T02:00:41.381Z,9.30
2022-11-17T02:05:57.600Z,9.50
2022-11-17T02:11:01.699Z,9.70
2022-11-17T02:21:17.414Z,9.60
2022-11-17T02:26:40.988Z,9.80
2022-11-17T02:31:58.239Z,10.00
2022-11-17T02:37:20.326Z,10.00
2022-11-17T02:42:54.440Z,10.00
2022-11-17T02:47:58.414Z,10.20
2022-11-17T02:53:00.302Z,9.90
2022-11-17T02:58:01.974Z,10.10
2022-11-17T03:03:22.323Z,12.70
2022-11-17T03:09:01.728Z,10.10
2022-11-17T03:14:23.599Z,10.10
2022-11-17T03:24:31.235Z,10.00
2022-11-17T03:29:36.554Z,11.70
2022-11-17T03:34:45.646Z,10.00
2022-11-17T03:39:51.305Z,9.90
2022-11-17T03:45:01.586Z,10.80
2022-11-17T03:50:16.028Z,12.20
2022-11-17T03:55:17.821Z,10.00
2022-11-17T04:00:20.558Z,10.00
2022-11-17T04:20:56.863Z,10.10
2022-11-17T04:26:16.989Z,10.20
2022-11-17T04:31:20.028Z,10.60
2022-11-17T04:36:26.986Z,10.20
2022-11-17T04:41:48.807Z,10.20
2022-11-17T04:46:50.812Z,11.30
2022-11-17T04:51:53.648Z,10.40
2022-11-17T04:56:56.006Z,11.20
2022-11-17T05:02:02.483Z,10.60
2022-11-17T05:07:08.800Z,12.50
2022-11-17T05:12:29.377Z,11.40
2022-11-17T05:17:31.026Z,10.60
2022-11-17T05:22:51.299Z,10.40
2022-11-17T05:27:53.589Z,10.50
2022-11-17T05:32:55.220Z,11.80
2022-11-17T05:37:56.866Z,10.30
2022-11-17T05:42:58.527Z,11.10
2022-11-17T05:48:00.204Z,10.30
2022-11-17T05:53:01.899Z,10.50
2022-11-17T05:58:29.903Z,12.60
2022-11-17T06:03:37.126Z,10.20
2022-11-17T06:08:39.421Z,10.20
2022-11-17T06:13:41.107Z,10.40
2022-11-17T06:18:49.012Z,10.00
2022-11-17T06:23:51.111Z,10.00
2022-11-17T06:28:53.295Z,10.10
2022-11-17T06:38:57.393Z,9.80
2022-11-17T06:43:59.126Z,10.00
2022-11-17T06:54:03.976Z,10.00
2022-11-17T06:59:06.101Z,10.20
2022-11-17T07:04:08.933Z,10.20
2022-11-17T07:09:10.647Z,10.20
2022-11-17T07:14:12.441Z,10.30
2022-11-17T07:19:14.293Z,10.20
2022-11-17T07:24:16.087Z,10.70
2022-11-17T07:29:17.821Z,10.60
2022-11-17T07:34:19.540Z,11.20
2022-11-17T07:39:22.170Z,11.10
2022-11-17T07:44:24.000Z,11.40
2022-11-17T07:49:27.452Z,11.40
2022-11-17T07:54:29.185Z,11.60
2022-11-17T07:59:30.863Z,11.80
2022-11-17T08:04:32.636Z,11.50
2022-11-17T08:09:34.352Z,11.60
2022-11-17T08:14:36.166Z,11.50
2022-11-17T08:19:37.886Z,11.50
2022-11-17T08:24:39.801Z,11.70
2022-11-17T08:29:41.585Z,11.60
2022-11-17T08:34:43.332Z,11.80
2022-11-17T08:39:45.134Z,11.80
2022-11-17T08:44:46.889Z,11.80
2022-11-17T08:49:48.618Z,11.70
2022-11-17T08:54:52.434Z,11.80
2022-11-17T08:59:54.266Z,12.30
2022-11-17T09:04:56.043Z,13.00
2022-11-17T09:09:57.758Z,11.70
2022-11-17T09:14:59.472Z,12.70
2022-11-17T09:20:01.385Z,11.90
2022-11-17T09:25:03.220Z,11.80
2022-11-17T09:30:05.430Z,11.80
2022-11-17T09:35:09.328Z,11.80
2022-11-17T09:40:15.780Z,12.00
2022-11-17T09:45:25.479Z,12.00
2022-11-17T09:50:39.751Z,12.00
2022-11-17T09:55:45.316Z,12.00
2022-11-17T10:00:48.904Z,11.90
2022-11-17T10:05:51.742Z,11.90
2022-11-17T10:10:53.476Z,12.00
2022-11-17T10:16:03.846Z,11.90
2022-11-17T10:21:08.203Z,11.90
2022-11-17T10:26:12.992Z,11.80
2022-11-17T10:31:17.582Z,13.00
2022-11-17T10:36:27.796Z,11.90
2022-11-17T10:41:50.456Z,12.50
2022-11-17T10:47:01.764Z,12.40
2022-11-17T10:52:05.415Z,14.00
2022-11-17T10:57:14.884Z,13.50
2022-11-17T11:02:30.553Z,12.60
2022-11-17T11:07:32.388Z,12.60
2022-11-17T11:12:52.999Z,12.70
2022-11-17T11:17:54.730Z,12.80
2022-11-17T11:23:02.589Z,12.60
2022-11-17T11:28:33.233Z,12.40
2022-11-17T11:33:38.466Z,16.00
2022-11-17T11:38:58.908Z,18.60
2022-11-17T11:44:35.515Z,18.80
2022-11-17T11:49:49.376Z,15.70
2022-11-17T11:54:58.066Z,15.30
2022-11-17T12:00:04.969Z,15.60
2022-11-17T12:05:48.918Z,19.10
2022-11-17T12:10:57.373Z,15.50
2022-11-17T12:16:37.010Z,16.50
2022-11-17T12:21:39.785Z,13.90
2022-11-17T12:26:41.582Z,13.50
2022-11-17T12:31:45.558Z,13.50
2022-11-17T12:37:06.941Z,14.50
2022-11-17T12:42:08.663Z,14.30
2022-11-17T12:47:17.691Z,14.60
2022-11-17T12:52:43.706Z,13.70
2022-11-17T12:57:51.778Z,13.70
2022-11-17T13:03:15.305Z,13.70
2022-11-17T13:08:16.958Z,13.50
2022-11-17T13:13:23.718Z,13.40
2022-11-17T13:18:33.338Z,14.30
2022-11-17T13:23:35.051Z,13.60
2022-11-17T13:28:37.096Z,13.50
2022-11-17T13:33:40.567Z,13.60
2022-11-17T13:38:54.672Z,14.60
2022-11-17T13:43:57.197Z,14.40
2022-11-17T13:48:58.939Z,15.60
2022-11-17T13:54:14.128Z,17.20
2022-11-17T13:59:29.331Z,14.80
2022-11-17T14:04:31.179Z,13.80
2022-11-17T14:09:36.236Z,14.30
2022-11-17T14:14:43.916Z,13.90
2022-11-17T14:19:46.732Z,13.70
2022-11-17T14:24:48.531Z,14.40
2022-11-17T14:29:50.330Z,13.70
2022-11-17T14:34:52.060Z,13.70
2022-11-17T14:39:53.737Z,13.70
2022-11-17T14:44:55.639Z,13.50
2022-11-17T14:49:57.305Z,13.70
2022-11-17T15:00:02.717Z,13.20
2022-11-17T15:05:04.727Z,12.50
2022-11-17T15:10:07.614Z,13.00
2022-11-17T15:15:09.804Z,13.10
2022-11-17T15:20:12.002Z,13.10
2022-11-17T15:25:13.711Z,13.10
2022-11-17T15:30:15.567Z,13.10
2022-11-17T15:35:17.270Z,13.20
2022-11-17T15:45:21.676Z,13.00
2022-11-17T15:50:23.365Z,12.90
2022-11-17T15:55:25.118Z,12.90
2022-11-17T16:00:26.902Z,12.60
2022-11-17T16:05:28.688Z,12.60
2022-11-17T16:10:30.424Z,12.30
2022-11-17T16:15:32.189Z,12.40
2022-11-17T16:20:33.981Z,12.30
2022-11-17T16:25:47.048Z,13.00
2022-11-17T16:35:50.941Z,12.00
2022-11-17T16:40:52.647Z,12.10
2022-11-17T16:45:54.359Z,11.90
2022-11-17T16:50:56.070Z,11.80
2022-11-17T16:56:06.370Z,11.80
2022-11-17T17:01:12.808Z,11.80
2022-11-17T17:06:17.567Z,11.80
2022-11-17T17:11:20.103Z,11.70
2022-11-17T17:16:21.994Z,11.70
2022-11-17T17:21:23.853Z,11.70
2022-11-17T17:26:28.249Z,11.70
2022-11-17T17:31:35.747Z,11.60
2022-11-17T17:36:38.557Z,12.40
2022-11-17T17:41:40.983Z,14.10
2022-11-17T17:46:43.200Z,12.50
2022-11-17T17:51:45.133Z,11.80
2022-11-17T17:56:47.740Z,11.60
2022-11-17T18:01:49.739Z,14.40
2022-11-17T18:06:51.593Z,13.60
2022-11-17T18:11:53.835Z,13.00
2022-11-17T18:16:55.862Z,12.60
2022-11-17T18:27:00.875Z,11.50
2022-11-17T18:32:02.599Z,11.50
2022-11-17T18:37:04.373Z,11.50
2022-11-17T18:42:06.213Z,11.50
2022-11-17T18:47:07.954Z,11.40
2022-11-17T19:02:13.916Z,11.30
2022-11-17T19:07:15.699Z,11.20
2022-11-17T19:12:19.011Z,12.10
2022-11-17T19:17:20.715Z,11.40
2022-11-17T19:22:23.130Z,11.50
2022-11-17T19:32:26.992Z,11.30
2022-11-17T19:37:28.677Z,11.40
2022-11-17T19:42:30.401Z,11.40
2022-11-17T19:47:32.101Z,11.40
2022-11-17T19:52:33.887Z,11.30
2022-11-17T19:57:35.563Z,11.30
2022-11-17T20:02:37.440Z,12.40
2022-11-17T20:07:39.303Z,11.40
2022-11-17T20:17:45.171Z,11.40
2022-11-17T20:22:46.905Z,11.20
2022-11-17T20:27:48.667Z,12.10
2022-11-17T20:32:50.406Z,11.20
2022-11-17T20:37:52.135Z,11.10
2022-11-17T20:42:53.834Z,11.10
2022-11-17T20:47:55.639Z,12.20
2022-11-17T20:52:57.331Z,10.80
2022-11-17T21:03:01.224Z,11.00
2022-11-17T21:13:05.065Z,11.00
2022-11-17T21:18:24.834Z,10.90
2022-11-17T21:23:27.623Z,10.90
2022-11-17T21:28:29.396Z,11.00
2022-11-17T21:33:31.148Z,13.10
2022-11-17T21:38:32.862Z,10.90
2022-11-17T21:43:38.977Z,11.00
2022-11-17T21:48:41.549Z,10.90
2022-11-17T21:53:44.008Z,10.80
2022-11-17T21:58:45.691Z,11.40
2022-11-17T22:08:50.197Z,10.60
2022-11-17T22:23:56.490Z,10.40
2022-11-17T22:28:59.176Z,11.70
2022-11-17T22:34:00.985Z,12.60
2022-11-17T22:39:03.195Z,10.40
2022-11-17T22:44:06.275Z,10.50
2022-11-17T22:54:10.086Z,10.40
2022-11-17T22:59:11.786Z,10.80
2022-11-17T23:04:14.104Z,13.00
2022-11-17T23:09:16.125Z,13.20
2022-11-17T23:14:18.044Z,13.00
2022-11-17T23:19:20.100Z,10.20
2022-11-17T23:24:22.224Z,10.10
2022-11-17T23:29:23.910Z,10.00
2022-11-17T23:34:27.536Z,9.90
2022-11-17T23:39:29.290Z,10.00
2022-11-17T23:44:31.272Z,10.00
2022-11-17T23:49:33.012Z,9.90
2022-11-17T23:54:34.812Z,10.10
2022-11-17T23:59:36.540Z,9.90
